createdAt,value
2019-01-16T00:03:46.619Z,62.60
2019-01-16T00:13:29.419Z,69.60
2019-01-16T00:18:20.834Z,70.30
2019-01-16T00:23:12.186Z,72.50
2019-01-16T00:28:03.636Z,74.00
2019-01-16T00:32:55.039Z,77.20
2019-01-16T00:37:46.470Z,76.20
2019-01-16T00:42:37.870Z,77.80
2019-01-16T00:47:29.288Z,74.50
2019-01-16T00:52:20.690Z,74.40
2019-01-16T00:57:12.132Z,73.60
2019-01-16T01:02:03.517Z,73.10
2019-01-16T01:06:55.000Z,73.90
2019-01-16T01:11:46.246Z,72.10
2019-01-16T01:16:37.744Z,72.40
2019-01-16T01:21:29.148Z,72.30
2019-01-16T01:26:20.634Z,74.70
2019-01-16T01:31:11.958Z,75.80
2019-01-16T01:36:03.366Z,74.90
2019-01-16T01:40:54.736Z,73.10
2019-01-16T01:45:46.258Z,73.40
2019-01-16T01:50:37.501Z,72.50
2019-01-16T01:55:28.970Z,74.90
2019-01-16T02:00:20.276Z,76.00
2019-01-16T02:05:11.777Z,74.60
2019-01-16T02:10:03.099Z,73.90
2019-01-16T02:14:54.521Z,76.90
2019-01-16T02:19:45.899Z,75.30
2019-01-16T02:24:37.358Z,75.70
2019-01-16T02:29:28.754Z,75.00
2019-01-16T02:34:20.191Z,76.00
2019-01-16T02:39:11.552Z,75.60
2019-01-16T02:44:03.026Z,77.10
2019-01-16T02:48:56.804Z,77.70
2019-01-16T02:53:45.771Z,78.90
2019-01-16T02:58:37.138Z,78.70
2019-01-16T03:03:30.772Z,77.70
2019-01-16T03:08:22.280Z,76.80
2019-01-16T03:13:13.646Z,80.00
2019-01-16T03:18:04.983Z,78.20
2019-01-16T03:22:56.432Z,78.40
2019-01-16T03:27:47.747Z,79.10
2019-01-16T03:32:39.156Z,80.00
2019-01-16T03:37:30.531Z,78.90
2019-01-16T03:42:22.035Z,81.50
2019-01-16T03:47:13.327Z,84.00
2019-01-16T03:52:04.787Z,84.20
2019-01-16T03:56:56.172Z,86.70
2019-01-16T04:01:47.699Z,86.20
2019-01-16T04:06:38.945Z,86.30
2019-01-16T04:11:30.391Z,87.20
2019-01-16T04:16:21.815Z,86.60
2019-01-16T04:21:13.333Z,87.30
2019-01-16T04:26:04.653Z,88.70
2019-01-16T04:30:56.101Z,89.30
2019-01-16T04:35:47.419Z,90.00
2019-01-16T04:40:38.894Z,90.80
2019-01-16T04:45:30.269Z,90.80
2019-01-16T04:50:21.668Z,90.00
2019-01-16T04:55:13.034Z,90.20
2019-01-16T05:00:04.486Z,91.70
2019-01-16T05:04:55.852Z,92.90
2019-01-16T05:09:47.291Z,93.40
2019-01-16T05:14:38.653Z,93.50
2019-01-16T05:19:38.343Z,93.10
2019-01-16T05:24:21.505Z,93.10
2019-01-16T05:29:12.866Z,92.70
2019-01-16T05:34:04.374Z,92.00
2019-01-16T05:38:55.846Z,93.40
2019-01-16T05:43:47.180Z,94.30
2019-01-16T05:48:38.652Z,94.60
2019-01-16T05:53:30.032Z,96.00
2019-01-16T05:58:21.553Z,96.70
2019-01-16T06:03:12.869Z,96.60
2019-01-16T06:08:04.318Z,97.60
2019-01-16T06:12:55.691Z,96.60
2019-01-16T06:17:47.255Z,95.70
2019-01-16T06:22:38.586Z,95.50
2019-01-16T06:27:29.992Z,96.80
2019-01-16T06:32:21.340Z,96.60
2019-01-16T06:37:12.802Z,96.70
2019-01-16T06:42:04.170Z,96.60
2019-01-16T06:46:55.670Z,96.10
2019-01-16T06:51:46.932Z,97.50
2019-01-16T06:56:38.456Z,99.00
2019-01-16T07:01:29.775Z,99.50
2019-01-16T07:06:21.185Z,99.60
2019-01-16T07:11:12.559Z,99.90
2019-01-16T07:16:04.050Z,99.60
2019-01-16T07:20:55.310Z,99.60
2019-01-16T07:25:46.794Z,99.80
2019-01-16T07:30:38.150Z,98.90
2019-01-16T07:35:29.608Z,99.40
2019-01-16T07:40:20.920Z,99.40
2019-01-16T07:45:12.313Z,99.90
2019-01-16T07:50:03.666Z,98.50
2019-01-16T07:54:57.331Z,98.70
2019-01-16T07:59:48.764Z,98.70
2019-01-16T08:04:40.230Z,97.90
2019-01-16T08:09:31.562Z,97.70
2019-01-16T08:14:23.024Z,97.30
2019-01-16T08:19:14.382Z,96.20
2019-01-16T08:24:05.817Z,97.90
2019-01-16T08:28:57.207Z,97.00
2019-01-16T08:33:48.556Z,97.00
2019-01-16T08:38:39.945Z,94.00
2019-01-16T08:43:33.592Z,94.40
2019-01-16T08:48:25.064Z,94.50
2019-01-16T08:53:16.571Z,93.20
2019-01-16T08:58:07.880Z,92.10
2019-01-16T09:02:59.312Z,89.80
2019-01-16T09:07:50.658Z,91.60
2019-01-16T09:12:42.180Z,90.90
2019-01-16T09:17:33.473Z,89.90
2019-01-16T09:22:24.896Z,91.60
2019-01-16T09:27:16.308Z,88.80
2019-01-16T09:32:07.709Z,89.30
2019-01-16T09:36:59.139Z,89.80
2019-01-16T09:46:48.639Z,87.00
2019-01-16T09:51:40.084Z,87.70
2019-01-16T09:56:31.546Z,85.00
2019-01-16T10:01:25.131Z,85.80
2019-01-16T10:06:16.647Z,84.50
2019-01-16T10:11:08.014Z,81.70
2019-01-16T10:15:59.405Z,82.30
2019-01-16T10:20:56.293Z,80.30
2019-01-16T10:25:42.165Z,81.80
2019-01-16T10:30:33.538Z,81.90
2019-01-16T10:35:24.933Z,82.40
2019-01-16T10:40:16.319Z,82.80
2019-01-16T10:45:07.692Z,80.40
2019-01-16T10:50:01.347Z,75.40
2019-01-16T10:54:52.785Z,75.80
2019-01-16T10:59:44.182Z,75.40
2019-01-16T11:09:29.307Z,74.70
2019-01-16T11:14:20.665Z,73.40
2019-01-16T11:19:11.977Z,67.40
2019-01-16T11:24:03.479Z,68.50
2019-01-16T11:28:54.813Z,67.70
2019-01-16T11:33:46.175Z,66.80
2019-01-16T11:38:37.561Z,68.10
2019-01-16T11:43:28.990Z,66.60
2019-01-16T11:48:20.391Z,58.90
2019-01-16T11:53:12.775Z,62.20
2019-01-16T11:58:03.196Z,51.20
2019-01-16T12:02:54.615Z,57.90
2019-01-16T12:07:46.142Z,59.80
2019-01-16T12:12:37.466Z,57.70
2019-01-16T12:17:30.256Z,53.00
2019-01-16T12:22:22.458Z,57.00
2019-01-16T12:27:13.954Z,57.60
2019-01-16T12:32:07.541Z,52.70
2019-01-16T12:36:58.974Z,54.30
2019-01-16T12:41:50.391Z,47.80
2019-01-16T12:46:41.774Z,49.10
2019-01-16T12:51:34.248Z,49.30
2019-01-16T12:56:24.480Z,50.20
2019-01-16T13:01:18.119Z,50.00
2019-01-16T13:06:09.648Z,52.40
2019-01-16T13:11:03.208Z,49.80
2019-01-16T13:15:54.723Z,51.50
2019-01-16T13:20:46.028Z,52.00
2019-01-16T13:25:37.544Z,49.50
2019-01-16T13:30:31.077Z,46.90
2019-01-16T13:35:22.548Z,40.90
2019-01-16T13:40:13.894Z,46.10
2019-01-16T13:45:05.350Z,40.40
2019-01-16T13:49:56.698Z,38.90
2019-01-16T13:54:50.347Z,43.50
2019-01-16T13:59:41.775Z,39.50
2019-01-16T14:04:33.226Z,39.10
2019-01-16T14:09:24.561Z,39.20
2019-01-16T14:14:16.018Z,40.30
2019-01-16T14:19:07.354Z,37.60
2019-01-16T14:23:58.847Z,38.30
2019-01-16T14:28:50.164Z,36.70
2019-01-16T14:33:43.784Z,36.60
2019-01-16T14:38:35.206Z,37.10
2019-01-16T14:55:18.598Z,37.50
2019-01-16T14:58:00.875Z,37.00
2019-01-16T15:02:52.292Z,37.60
2019-01-16T15:07:43.634Z,39.20
2019-01-16T15:12:34.971Z,39.30
2019-01-16T15:17:26.398Z,39.60
2019-01-16T15:22:19.971Z,41.90
2019-01-16T15:27:11.536Z,41.50
2019-01-16T15:32:05.028Z,41.60
2019-01-16T15:36:56.569Z,41.60
2019-01-16T15:41:50.099Z,41.90
2019-01-16T15:46:41.862Z,42.50
2019-01-16T15:51:32.954Z,43.10
2019-01-16T15:56:24.424Z,43.70
2019-01-16T16:01:15.841Z,46.00
2019-01-16T16:06:07.212Z,46.90
2019-01-16T16:10:58.479Z,47.00
2019-01-16T16:15:52.155Z,47.90
2019-01-16T16:20:45.823Z,48.80
2019-01-16T16:25:37.272Z,49.50
2019-01-16T16:30:28.604Z,51.90
2019-01-16T16:35:22.318Z,52.60
2019-01-16T16:40:13.802Z,52.10
2019-01-16T16:45:05.186Z,51.40
2019-01-16T16:49:56.547Z,51.10
2019-01-16T16:54:47.961Z,51.00
2019-01-16T16:59:39.442Z,52.70
2019-01-16T17:04:30.782Z,53.50
2019-01-16T17:09:24.438Z,54.10
2019-01-16T17:14:18.073Z,55.50
2019-01-16T17:19:09.566Z,57.80
2019-01-16T17:24:00.966Z,62.00
2019-01-16T17:28:52.330Z,61.20
2019-01-16T17:33:43.771Z,61.20
2019-01-16T17:38:35.144Z,58.90
2019-01-16T17:43:26.627Z,55.50
2019-01-16T17:48:17.950Z,56.00
2019-01-16T17:53:09.373Z,52.10
2019-01-16T17:58:00.775Z,51.80
2019-01-16T18:02:52.413Z,51.20
2019-01-16T18:07:43.452Z,50.70
2019-01-16T18:12:34.891Z,49.70
2019-01-16T18:17:26.377Z,49.20
2019-01-16T18:22:17.768Z,49.70
2019-01-16T18:27:09.057Z,48.40
2019-01-16T18:32:00.450Z,47.30
2019-01-16T18:36:52.030Z,47.70
2019-01-16T18:41:45.536Z,47.80
2019-01-16T18:46:36.981Z,48.70
2019-01-16T18:51:28.486Z,49.10
2019-01-16T18:56:22.015Z,49.00
2019-01-16T19:01:13.437Z,48.60
2019-01-16T19:06:04.836Z,48.70
2019-01-16T19:10:56.298Z,48.60
2019-01-16T19:15:47.663Z,49.00
2019-01-16T19:20:39.074Z,49.50
2019-01-16T19:25:30.375Z,48.90
2019-01-16T19:30:22.017Z,50.80
2019-01-16T19:35:13.233Z,50.80
2019-01-16T19:40:04.585Z,50.70
2019-01-16T19:44:55.900Z,51.20
2019-01-16T19:49:47.350Z,51.90
2019-01-16T19:54:41.009Z,53.30
2019-01-16T19:59:34.639Z,53.40
2019-01-16T20:04:26.044Z,55.50
2019-01-16T20:09:19.712Z,54.60
2019-01-16T20:14:11.152Z,53.90
2019-01-16T20:19:02.498Z,53.80
2019-01-16T20:23:53.907Z,54.00
2019-01-16T20:28:45.328Z,54.10
2019-01-16T20:33:38.883Z,55.90
2019-01-16T20:38:30.339Z,56.50
2019-01-16T20:43:21.761Z,52.20
2019-01-16T20:48:13.155Z,49.90
2019-01-16T20:53:06.062Z,47.60
2019-01-16T20:57:55.974Z,46.70
2019-01-16T21:02:47.417Z,45.20
2019-01-16T21:07:38.761Z,43.30
2019-01-16T21:12:32.413Z,43.30
2019-01-16T21:17:23.870Z,42.60
2019-01-16T21:22:17.483Z,42.30
2019-01-16T21:27:08.913Z,42.90
2019-01-16T21:32:00.419Z,43.40
2019-01-16T21:36:53.887Z,43.00
2019-01-16T21:41:49.975Z,43.30
2019-01-16T21:46:41.422Z,44.50
2019-01-16T21:51:33.047Z,45.80
2019-01-16T21:56:24.209Z,46.70
2019-01-16T22:01:17.934Z,46.70
2019-01-16T22:06:11.700Z,46.70
2019-01-16T22:11:05.410Z,46.50
2019-01-16T22:15:56.800Z,47.60
2019-01-16T22:20:48.244Z,47.60
2019-01-16T22:25:39.717Z,47.80
2019-01-16T22:30:33.268Z,48.20
2019-01-16T22:35:24.735Z,48.50
2019-01-16T22:40:16.093Z,48.70
2019-01-16T22:45:07.611Z,48.50
2019-01-16T22:49:58.938Z,48.50
2019-01-16T22:54:50.428Z,49.00
2019-01-16T22:59:44.009Z,50.00
2019-01-16T23:04:37.682Z,50.20
2019-01-16T23:09:29.068Z,50.00
2019-01-16T23:14:20.501Z,50.70
2019-01-16T23:19:11.877Z,49.50
2019-01-16T23:24:04.747Z,49.10
2019-01-16T23:28:54.647Z,47.90
2019-01-16T23:33:46.181Z,47.20
2019-01-16T23:38:37.498Z,46.80
2019-01-16T23:43:31.079Z,48.30
2019-01-16T23:48:22.576Z,47.50
2019-01-16T23:53:13.989Z,48.50
2019-01-16T23:58:09.874Z,48.60
